sensor_id;sensor_type;location;lat;lon;timestamp;temperature;humidity
72355;SHT30;60314;55.040;73.076;2022-12-29T00:01:19;-16.42;80.25
72355;SHT30;60314;55.040;73.076;2022-12-29T00:03:56;-16.42;79.61
72355;SHT30;60314;55.040;73.076;2022-12-29T00:06:23;-16.37;79.97
72355;SHT30;60314;55.040;73.076;2022-12-29T00:08:54;-16.36;80.13
72355;SHT30;60314;55.040;73.076;2022-12-29T00:11:22;-16.37;81.10
72355;SHT30;60314;55.040;73.076;2022-12-29T00:13:48;-16.33;81.99
72355;SHT30;60314;55.040;73.076;2022-12-29T00:16:34;-16.33;82.27
72355;SHT30;60314;55.040;73.076;2022-12-29T00:19:01;-16.19;81.88
72355;SHT30;60314;55.040;73.076;2022-12-29T00:21:28;-16.13;81.86
72355;SHT30;60314;55.040;73.076;2022-12-29T00:24:16;-16.28;81.81
72355;SHT30;60314;55.040;73.076;2022-12-29T00:29:50;-16.37;82.34
72355;SHT30;60314;55.040;73.076;2022-12-29T00:32:45;-16.36;82.10
72355;SHT30;60314;55.040;73.076;2022-12-29T00:35:31;-16.34;82.33
72355;SHT30;60314;55.040;73.076;2022-12-29T00:38:02;-16.37;82.18
72355;SHT30;60314;55.040;73.076;2022-12-29T00:40:49;-16.43;82.44
72355;SHT30;60314;55.040;73.076;2022-12-29T00:43:33;-16.44;82.47
72355;SHT30;60314;55.040;73.076;2022-12-29T00:46:18;-16.42;82.53
72355;SHT30;60314;55.040;73.076;2022-12-29T00:48:50;-16.43;82.38
72355;SHT30;60314;55.040;73.076;2022-12-29T00:51:35;-16.49;82.26
72355;SHT30;60314;55.040;73.076;2022-12-29T00:54:01;-16.46;82.87
72355;SHT30;60314;55.040;73.076;2022-12-29T00:56:28;-16.40;82.31
72355;SHT30;60314;55.040;73.076;2022-12-29T00:59:01;-16.37;82.08
72355;SHT30;60314;55.040;73.076;2022-12-29T01:01:33;-16.40;81.97
72355;SHT30;60314;55.040;73.076;2022-12-29T01:04:11;-16.50;82.38
72355;SHT30;60314;55.040;73.076;2022-12-29T01:06:38;-16.47;82.56
72355;SHT30;60314;55.040;73.076;2022-12-29T01:09:06;-16.40;82.47
72355;SHT30;60314;55.040;73.076;2022-12-29T01:11:56;-16.37;82.23
72355;SHT30;60314;55.040;73.076;2022-12-29T01:14:23;-16.36;82.31
72355;SHT30;60314;55.040;73.076;2022-12-29T01:16:50;-16.33;82.21
72355;SHT30;60314;55.040;73.076;2022-12-29T01:19:17;-16.26;82.19
72355;SHT30;60314;55.040;73.076;2022-12-29T01:21:44;-16.22;82.13
72355;SHT30;60314;55.040;73.076;2022-12-29T01:24:12;-16.12;82.12
72355;SHT30;60314;55.040;73.076;2022-12-29T01:26:43;-16.13;81.23
72355;SHT30;60314;55.040;73.076;2022-12-29T01:29:10;-16.04;81.32
72355;SHT30;60314;55.040;73.076;2022-12-29T01:31:36;-15.97;80.83
72355;SHT30;60314;55.040;73.076;2022-12-29T01:34:03;-15.92;80.62
72355;SHT30;60314;55.040;73.076;2022-12-29T01:36:30;-15.87;80.29
72355;SHT30;60314;55.040;73.076;2022-12-29T01:38:56;-15.88;79.92
72355;SHT30;60314;55.040;73.076;2022-12-29T01:41:22;-15.82;79.77
72355;SHT30;60314;55.040;73.076;2022-12-29T01:48:58;-15.77;79.64
72355;SHT30;60314;55.040;73.076;2022-12-29T01:51:26;-15.80;79.31
72355;SHT30;60314;55.040;73.076;2022-12-29T01:53:53;-15.78;79.48
72355;SHT30;60314;55.040;73.076;2022-12-29T01:56:21;-15.87;79.62
72355;SHT30;60314;55.040;73.076;2022-12-29T01:58:49;-15.99;80.25
72355;SHT30;60314;55.040;73.076;2022-12-29T02:01:22;-16.04;80.57
72355;SHT30;60314;55.040;73.076;2022-12-29T02:03:48;-16.04;81.18
72355;SHT30;60314;55.040;73.076;2022-12-29T02:06:28;-16.06;81.03
72355;SHT30;60314;55.040;73.076;2022-12-29T02:08:55;-16.01;81.34
72355;SHT30;60314;55.040;73.076;2022-12-29T02:11:23;-16.06;81.04
72355;SHT30;60314;55.040;73.076;2022-12-29T02:13:54;-16.08;81.15
72355;SHT30;60314;55.040;73.076;2022-12-29T02:16:28;-16.08;81.47
72355;SHT30;60314;55.040;73.076;2022-12-29T02:26:43;-15.91;80.21
72355;SHT30;60314;55.040;73.076;2022-12-29T02:37:24;-16.15;80.86
72355;SHT30;60314;55.040;73.076;2022-12-29T02:45:18;-16.29;81.30
72355;SHT30;60314;55.040;73.076;2022-12-29T02:50:37;-16.29;81.85
72355;SHT30;60314;55.040;73.076;2022-12-29T02:53:05;-16.36;81.86
72355;SHT30;60314;55.040;73.076;2022-12-29T02:55:38;-16.30;81.85
72355;SHT30;60314;55.040;73.076;2022-12-29T02:58:18;-16.40;81.46
72355;SHT30;60314;55.040;73.076;2022-12-29T03:01:08;-16.30;81.66
72355;SHT30;60314;55.040;73.076;2022-12-29T03:06:09;-16.32;82.22
72355;SHT30;60314;55.040;73.076;2022-12-29T03:11:15;-16.43;82.27
72355;SHT30;60314;55.040;73.076;2022-12-29T03:20:11;-16.26;82.10
72355;SHT30;60314;55.040;73.076;2022-12-29T03:22:42;-16.19;81.50
72355;SHT30;60314;55.040;73.076;2022-12-29T03:25:25;-16.16;81.08
72355;SHT30;60314;55.040;73.076;2022-12-29T03:27:57;-16.05;80.98
72355;SHT30;60314;55.040;73.076;2022-12-29T03:30:26;-16.06;80.60
72355;SHT30;60314;55.040;73.076;2022-12-29T03:32:54;-16.01;80.92
72355;SHT30;60314;55.040;73.076;2022-12-29T03:35:25;-15.95;80.82
72355;SHT30;60314;55.040;73.076;2022-12-29T03:40:48;-16.15;80.70
72355;SHT30;60314;55.040;73.076;2022-12-29T03:43:19;-16.11;80.90
72355;SHT30;60314;55.040;73.076;2022-12-29T03:45:47;-15.97;81.27
72355;SHT30;60314;55.040;73.076;2022-12-29T03:48:19;-16.05;80.77
72355;SHT30;60314;55.040;73.076;2022-12-29T03:50:46;-16.01;81.44
72355;SHT30;60314;55.040;73.076;2022-12-29T03:53:13;-15.91;81.16
72355;SHT30;60314;55.040;73.076;2022-12-29T03:55:41;-16.01;81.04
72355;SHT30;60314;55.040;73.076;2022-12-29T03:58:08;-16.05;81.61
72355;SHT30;60314;55.040;73.076;2022-12-29T04:01:01;-15.94;81.32
72355;SHT30;60314;55.040;73.076;2022-12-29T04:03:39;-16.02;81.29
72355;SHT30;60314;55.040;73.076;2022-12-29T04:06:05;-15.95;81.50
72355;SHT30;60314;55.040;73.076;2022-12-29T04:08:39;-15.99;81.33
72355;SHT30;60314;55.040;73.076;2022-12-29T04:11:06;-15.91;81.55
72355;SHT30;60314;55.040;73.076;2022-12-29T04:13:33;-15.87;81.19
72355;SHT30;60314;55.040;73.076;2022-12-29T04:15:59;-15.84;80.82
72355;SHT30;60314;55.040;73.076;2022-12-29T04:18:26;-15.80;80.91
72355;SHT30;60314;55.040;73.076;2022-12-29T04:20:53;-15.77;80.83
72355;SHT30;60314;55.040;73.076;2022-12-29T04:23:40;-15.77;80.94
72355;SHT30;60314;55.040;73.076;2022-12-29T04:26:08;-15.81;80.89
72355;SHT30;60314;55.040;73.076;2022-12-29T04:28:43;-15.75;81.29
72355;SHT30;60314;55.040;73.076;2022-12-29T04:31:26;-15.66;80.83
72355;SHT30;60314;55.040;73.076;2022-12-29T04:34:02;-15.60;80.85
72355;SHT30;60314;55.040;73.076;2022-12-29T04:36:29;-15.61;80.36
72355;SHT30;60314;55.040;73.076;2022-12-29T04:38:56;-15.60;80.30
72355;SHT30;60314;55.040;73.076;2022-12-29T04:41:22;-15.60;80.72
72355;SHT30;60314;55.040;73.076;2022-12-29T04:43:49;-15.47;80.89
72355;SHT30;60314;55.040;73.076;2022-12-29T04:46:40;-15.47;80.18
72355;SHT30;60314;55.040;73.076;2022-12-29T04:49:17;-15.44;80.35
72355;SHT30;60314;55.040;73.076;2022-12-29T04:51:52;-15.39;80.11
72355;SHT30;60314;55.040;73.076;2022-12-29T04:54:19;-15.35;79.90
72355;SHT30;60314;55.040;73.076;2022-12-29T04:56:53;-15.36;79.68
72355;SHT30;60314;55.040;73.076;2022-12-29T04:59:29;-15.32;79.83
72355;SHT30;60314;55.040;73.076;2022-12-29T05:01:58;-15.30;79.87
72355;SHT30;60314;55.040;73.076;2022-12-29T05:04:25;-15.32;79.87
72355;SHT30;60314;55.040;73.076;2022-12-29T05:06:52;-15.36;80.20
72355;SHT30;60314;55.040;73.076;2022-12-29T05:09:23;-15.27;80.58
72355;SHT30;60314;55.040;73.076;2022-12-29T05:12:00;-15.23;79.89
72355;SHT30;60314;55.040;73.076;2022-12-29T05:14:26;-15.19;79.62
72355;SHT30;60314;55.040;73.076;2022-12-29T05:20:16;-15.08;79.49
72355;SHT30;60314;55.040;73.076;2022-12-29T05:22:52;-15.16;78.84
72355;SHT30;60314;55.040;73.076;2022-12-29T05:25:19;-14.99;79.69
72355;SHT30;60314;55.040;73.076;2022-12-29T05:28:04;-14.73;79.26
72355;SHT30;60314;55.040;73.076;2022-12-29T05:30:59;-14.59;78.75
72355;SHT30;60314;55.040;73.076;2022-12-29T05:33:31;-14.57;78.45
72355;SHT30;60314;55.040;73.076;2022-12-29T05:36:05;-14.47;78.14
72355;SHT30;60314;55.040;73.076;2022-12-29T05:38:31;-14.42;77.47
72355;SHT30;60314;55.040;73.076;2022-12-29T05:40:58;-14.32;77.04
72355;SHT30;60314;55.040;73.076;2022-12-29T05:43:42;-14.25;76.24
72355;SHT30;60314;55.040;73.076;2022-12-29T05:46:32;-14.26;76.41
72355;SHT30;60314;55.040;73.076;2022-12-29T05:49:09;-14.23;76.69
72355;SHT30;60314;55.040;73.076;2022-12-29T05:55:11;-14.21;76.22
72355;SHT30;60314;55.040;73.076;2022-12-29T05:57:39;-14.11;76.91
72355;SHT30;60314;55.040;73.076;2022-12-29T06:00:10;-14.02;76.73
72355;SHT30;60314;55.040;73.076;2022-12-29T06:02:44;-13.99;77.03
72355;SHT30;60314;55.040;73.076;2022-12-29T06:05:11;-14.03;76.43
72355;SHT30;60314;55.040;73.076;2022-12-29T06:07:44;-13.99;77.09
72355;SHT30;60314;55.040;73.076;2022-12-29T06:10:14;-13.92;76.45
72355;SHT30;60314;55.040;73.076;2022-12-29T06:12:45;-13.82;76.44
72355;SHT30;60314;55.040;73.076;2022-12-29T06:15:12;-13.77;76.32
72355;SHT30;60314;55.040;73.076;2022-12-29T06:17:40;-13.62;76.73
72355;SHT30;60314;55.040;73.076;2022-12-29T06:20:07;-13.43;76.77
72355;SHT30;60314;55.040;73.076;2022-12-29T06:22:39;-13.33;76.84
72355;SHT30;60314;55.040;73.076;2022-12-29T06:25:06;-13.30;76.82
72355;SHT30;60314;55.040;73.076;2022-12-29T06:27:34;-13.24;77.06
72355;SHT30;60314;55.040;73.076;2022-12-29T06:30:04;-13.16;77.68
72355;SHT30;60314;55.040;73.076;2022-12-29T06:32:32;-12.93;77.16
72355;SHT30;60314;55.040;73.076;2022-12-29T06:35:13;-12.79;76.21
72355;SHT30;60314;55.040;73.076;2022-12-29T06:37:44;-12.65;75.75
72355;SHT30;60314;55.040;73.076;2022-12-29T06:40:11;-12.67;75.06
72355;SHT30;60314;55.040;73.076;2022-12-29T06:43:06;-12.68;75.46
72355;SHT30;60314;55.040;73.076;2022-12-29T06:45:41;-12.58;75.30
72355;SHT30;60314;55.040;73.076;2022-12-29T06:48:14;-12.57;75.26
72355;SHT30;60314;55.040;73.076;2022-12-29T06:50:46;-12.60;75.53
72355;SHT30;60314;55.040;73.076;2022-12-29T06:53:12;-12.55;75.63
72355;SHT30;60314;55.040;73.076;2022-12-29T06:55:39;-12.57;75.23
72355;SHT30;60314;55.040;73.076;2022-12-29T06:58:05;-12.53;74.98
72355;SHT30;60314;55.040;73.076;2022-12-29T07:00:32;-12.50;74.54
72355;SHT30;60314;55.040;73.076;2022-12-29T07:02:58;-12.55;74.73
72355;SHT30;60314;55.040;73.076;2022-12-29T07:05:25;-12.68;74.63
72355;SHT30;60314;55.040;73.076;2022-12-29T07:07:54;-12.61;75.40
72355;SHT30;60314;55.040;73.076;2022-12-29T07:10:21;-12.50;75.48
72355;SHT30;60314;55.040;73.076;2022-12-29T07:12:47;-12.44;74.96
72355;SHT30;60314;55.040;73.076;2022-12-29T07:15:14;-12.48;74.48
72355;SHT30;60314;55.040;73.076;2022-12-29T07:17:40;-12.58;74.27
72355;SHT30;60314;55.040;73.076;2022-12-29T07:20:07;-12.48;75.05
72355;SHT30;60314;55.040;73.076;2022-12-29T07:22:33;-12.50;74.53
72355;SHT30;60314;55.040;73.076;2022-12-29T07:25:00;-12.40;74.61
72355;SHT30;60314;55.040;73.076;2022-12-29T07:27:26;-12.29;73.69
72355;SHT30;60314;55.040;73.076;2022-12-29T07:29:53;-12.23;72.99
72355;SHT30;60314;55.040;73.076;2022-12-29T07:32:19;-12.17;72.36
72355;SHT30;60314;55.040;73.076;2022-12-29T07:34:45;-12.17;72.38
72355;SHT30;60314;55.040;73.076;2022-12-29T07:37:15;-12.22;72.27
72355;SHT30;60314;55.040;73.076;2022-12-29T07:39:41;-12.23;73.05
72355;SHT30;60314;55.040;73.076;2022-12-29T07:42:08;-12.20;73.03
72355;SHT30;60314;55.040;73.076;2022-12-29T07:44:41;-12.19;73.20
72355;SHT30;60314;55.040;73.076;2022-12-29T07:47:16;-12.23;72.74
72355;SHT30;60314;55.040;73.076;2022-12-29T07:49:42;-12.24;72.73
72355;SHT30;60314;55.040;73.076;2022-12-29T07:52:08;-12.30;72.83
72355;SHT30;60314;55.040;73.076;2022-12-29T07:54:35;-12.32;72.74
72355;SHT30;60314;55.040;73.076;2022-12-29T07:57:03;-12.41;72.45
72355;SHT30;60314;55.040;73.076;2022-12-29T07:59:33;-12.38;72.90
72355;SHT30;60314;55.040;73.076;2022-12-29T08:02:00;-12.37;72.56
72355;SHT30;60314;55.040;73.076;2022-12-29T08:04:34;-12.58;72.58
72355;SHT30;60314;55.040;73.076;2022-12-29T08:07:01;-12.60;73.26
72355;SHT30;60314;55.040;73.076;2022-12-29T08:09:27;-12.65;73.41
72355;SHT30;60314;55.040;73.076;2022-12-29T08:11:54;-12.50;74.06
72355;SHT30;60314;55.040;73.076;2022-12-29T08:14:20;-12.41;73.56
72355;SHT30;60314;55.040;73.076;2022-12-29T08:16:57;-12.43;73.53
72355;SHT30;60314;55.040;73.076;2022-12-29T08:19:24;-12.30;73.43
72355;SHT30;60314;55.040;73.076;2022-12-29T08:21:50;-12.34;73.13
72355;SHT30;60314;55.040;73.076;2022-12-29T08:24:17;-12.26;73.31
72355;SHT30;60314;55.040;73.076;2022-12-29T08:26:54;-12.27;73.23
72355;SHT30;60314;55.040;73.076;2022-12-29T08:29:20;-12.24;73.16
72355;SHT30;60314;55.040;73.076;2022-12-29T08:31:47;-12.24;72.93
72355;SHT30;60314;55.040;73.076;2022-12-29T08:34:14;-12.32;73.17
72355;SHT30;60314;55.040;73.076;2022-12-29T08:36:48;-12.37;73.74
72355;SHT30;60314;55.040;73.076;2022-12-29T08:39:15;-12.47;73.68
72355;SHT30;60314;55.040;73.076;2022-12-29T08:41:41;-12.48;74.22
72355;SHT30;60314;55.040;73.076;2022-12-29T08:44:08;-12.41;74.03
72355;SHT30;60314;55.040;73.076;2022-12-29T08:46:34;-12.30;74.00
72355;SHT30;60314;55.040;73.076;2022-12-29T08:49:01;-12.23;73.31
72355;SHT30;60314;55.040;73.076;2022-12-29T08:51:27;-12.26;72.73
72355;SHT30;60314;55.040;73.076;2022-12-29T08:53:55;-12.23;72.57
72355;SHT30;60314;55.040;73.076;2022-12-29T08:56:21;-12.19;72.40
72355;SHT30;60314;55.040;73.076;2022-12-29T08:58:52;-12.33;72.44
72355;SHT30;60314;55.040;73.076;2022-12-29T09:01:30;-12.40;72.52
72355;SHT30;60314;55.040;73.076;2022-12-29T09:03:59;-12.65;72.47
72355;SHT30;60314;55.040;73.076;2022-12-29T09:06:26;-12.63;73.87
72355;SHT30;60314;55.040;73.076;2022-12-29T09:08:53;-12.76;73.34
72355;SHT30;60314;55.040;73.076;2022-12-29T09:11:29;-12.84;74.41
72355;SHT30;60314;55.040;73.076;2022-12-29T09:13:56;-12.85;74.11
72355;SHT30;60314;55.040;73.076;2022-12-29T09:16:23;-12.93;74.26
72355;SHT30;60314;55.040;73.076;2022-12-29T09:18:50;-13.00;74.68
72355;SHT30;60314;55.040;73.076;2022-12-29T09:21:26;-12.98;74.95
72355;SHT30;60314;55.040;73.076;2022-12-29T09:23:53;-12.92;75.08
72355;SHT30;60314;55.040;73.076;2022-12-29T09:26:19;-12.91;74.82
72355;SHT30;60314;55.040;73.076;2022-12-29T09:28:45;-12.91;74.59
72355;SHT30;60314;55.040;73.076;2022-12-29T09:31:13;-12.82;74.33
72355;SHT30;60314;55.040;73.076;2022-12-29T09:33:39;-12.76;74.03
72355;SHT30;60314;55.040;73.076;2022-12-29T09:36:05;-12.71;73.69
72355;SHT30;60314;55.040;73.076;2022-12-29T09:38:32;-12.91;74.11
72355;SHT30;60314;55.040;73.076;2022-12-29T09:41:15;-13.06;74.78
72355;SHT30;60314;55.040;73.076;2022-12-29T09:44:02;-13.26;75.69
72355;SHT30;60314;55.040;73.076;2022-12-29T09:46:39;-13.31;75.85
72355;SHT30;60314;55.040;73.076;2022-12-29T09:51:54;-13.15;74.27
72355;SHT30;60314;55.040;73.076;2022-12-29T09:57:19;-13.27;74.03
72355;SHT30;60314;55.040;73.076;2022-12-29T09:59:48;-13.26;74.16
72355;SHT30;60314;55.040;73.076;2022-12-29T10:02:29;-13.16;73.08
72355;SHT30;60314;55.040;73.076;2022-12-29T10:04:57;-13.22;72.46
72355;SHT30;60314;55.040;73.076;2022-12-29T10:10:14;-13.24;71.73
72355;SHT30;60314;55.040;73.076;2022-12-29T10:20:32;-13.30;72.10
72355;SHT30;60314;55.040;73.076;2022-12-29T10:23:33;-13.33;71.77
72355;SHT30;60314;55.040;73.076;2022-12-29T10:25:56;-13.43;71.70
72355;SHT30;60314;55.040;73.076;2022-12-29T10:28:29;-13.58;71.47
72355;SHT30;60314;55.040;73.076;2022-12-29T10:31:03;-13.68;71.41
72355;SHT30;60314;55.040;73.076;2022-12-29T10:33:35;-13.75;70.86
72355;SHT30;60314;55.040;73.076;2022-12-29T10:36:28;-13.82;70.63
72355;SHT30;60314;55.040;73.076;2022-12-29T10:41:49;-13.99;70.31
72355;SHT30;60314;55.040;73.076;2022-12-29T10:44:21;-14.06;69.80
72355;SHT30;60314;55.040;73.076;2022-12-29T10:46:55;-14.16;69.85
72355;SHT30;60314;55.040;73.076;2022-12-29T10:49:33;-14.18;69.86
72355;SHT30;60314;55.040;73.076;2022-12-29T10:52:03;-14.25;69.92
72355;SHT30;60314;55.040;73.076;2022-12-29T10:54:54;-14.29;69.89
72355;SHT30;60314;55.040;73.076;2022-12-29T10:57:31;-14.37;69.70
72355;SHT30;60314;55.040;73.076;2022-12-29T10:59:58;-14.40;69.85
72355;SHT30;60314;55.040;73.076;2022-12-29T11:07:53;-14.57;70.41
72355;SHT30;60314;55.040;73.076;2022-12-29T11:13:12;-14.60;70.60
72355;SHT30;60314;55.040;73.076;2022-12-29T11:18:21;-14.52;70.61
72355;SHT30;60314;55.040;73.076;2022-12-29T11:20:52;-14.54;70.51
72355;SHT30;60314;55.040;73.076;2022-12-29T11:28:44;-14.57;71.29
72355;SHT30;60314;55.040;73.076;2022-12-29T11:31:22;-14.53;71.33
72355;SHT30;60314;55.040;73.076;2022-12-29T11:33:52;-14.53;71.47
72355;SHT30;60314;55.040;73.076;2022-12-29T11:36:20;-14.49;71.23
72355;SHT30;60314;55.040;73.076;2022-12-29T11:38:48;-14.42;71.45
72355;SHT30;60314;55.040;73.076;2022-12-29T11:41:22;-14.43;71.70
72355;SHT30;60314;55.040;73.076;2022-12-29T11:43:49;-14.53;71.94
72355;SHT30;60314;55.040;73.076;2022-12-29T11:46:39;-14.50;72.59
72355;SHT30;60314;55.040;73.076;2022-12-29T11:49:05;-14.50;72.71
72355;SHT30;60314;55.040;73.076;2022-12-29T11:51:38;-14.49;72.80
72355;SHT30;60314;55.040;73.076;2022-12-29T11:54:05;-14.52;73.21
72355;SHT30;60314;55.040;73.076;2022-12-29T11:56:36;-14.60;73.43
72355;SHT30;60314;55.040;73.076;2022-12-29T12:01:48;-14.61;74.29
72355;SHT30;60314;55.040;73.076;2022-12-29T12:04:15;-14.67;73.69
72355;SHT30;60314;55.040;73.076;2022-12-29T12:06:44;-14.65;73.74
72355;SHT30;60314;55.040;73.076;2022-12-29T12:12:23;-14.68;74.11
72355;SHT30;60314;55.040;73.076;2022-12-29T12:14:55;-14.67;73.96
72355;SHT30;60314;55.040;73.076;2022-12-29T12:20:42;-14.75;73.92
72355;SHT30;60314;55.040;73.076;2022-12-29T12:25:56;-14.78;73.74
72355;SHT30;60314;55.040;73.076;2022-12-29T12:33:59;-14.84;75.01
72355;SHT30;60314;55.040;73.076;2022-12-29T12:39:10;-14.88;74.98
72355;SHT30;60314;55.040;73.076;2022-12-29T12:41:54;-14.95;74.61
72355;SHT30;60314;55.040;73.076;2022-12-29T12:44:36;-15.02;73.79
72355;SHT30;60314;55.040;73.076;2022-12-29T12:49:48;-15.02;72.96
72355;SHT30;60314;55.040;73.076;2022-12-29T13:00:09;-15.15;72.25
72355;SHT30;60314;55.040;73.076;2022-12-29T13:08:13;-15.25;72.97
72355;SHT30;60314;55.040;73.076;2022-12-29T13:10:50;-15.30;73.16
72355;SHT30;60314;55.040;73.076;2022-12-29T13:18:27;-15.37;73.03
72355;SHT30;60314;55.040;73.076;2022-12-29T13:26:22;-15.42;73.79
72355;SHT30;60314;55.040;73.076;2022-12-29T13:31:39;-15.35;73.79
72355;SHT30;60314;55.040;73.076;2022-12-29T13:36:51;-15.46;74.66
72355;SHT30;60314;55.040;73.076;2022-12-29T13:39:26;-15.56;75.54
72355;SHT30;60314;55.040;73.076;2022-12-29T13:41:57;-15.64;75.91
72355;SHT30;60314;55.040;73.076;2022-12-29T13:44:26;-15.64;76.21
72355;SHT30;60314;55.040;73.076;2022-12-29T13:46:53;-15.66;76.29
72355;SHT30;60314;55.040;73.076;2022-12-29T13:49:21;-15.68;76.96
72355;SHT30;60314;55.040;73.076;2022-12-29T13:51:54;-15.67;76.87
72355;SHT30;60314;55.040;73.076;2022-12-29T14:00:15;-15.75;78.91
72355;SHT30;60314;55.040;73.076;2022-12-29T14:07:44;-15.77;78.41
72355;SHT30;60314;55.040;73.076;2022-12-29T14:10:31;-15.95;78.16
72355;SHT30;60314;55.040;73.076;2022-12-29T14:13:03;-16.05;78.88
72355;SHT30;60314;55.040;73.076;2022-12-29T14:15:37;-16.08;78.94
72355;SHT30;60314;55.040;73.076;2022-12-29T14:18:25;-16.08;79.60
72355;SHT30;60314;55.040;73.076;2022-12-29T14:21:09;-15.97;79.97
72355;SHT30;60314;55.040;73.076;2022-12-29T14:28:37;-15.84;79.57
72355;SHT30;60314;55.040;73.076;2022-12-29T14:36:34;-15.63;78.61
72355;SHT30;60314;55.040;73.076;2022-12-29T14:39:25;-15.64;78.71
72355;SHT30;60314;55.040;73.076;2022-12-29T14:44:30;-15.60;77.92
72355;SHT30;60314;55.040;73.076;2022-12-29T14:46:58;-15.61;78.18
72355;SHT30;60314;55.040;73.076;2022-12-29T14:49:30;-15.60;77.76
72355;SHT30;60314;55.040;73.076;2022-12-29T14:52:05;-15.54;77.76
72355;SHT30;60314;55.040;73.076;2022-12-29T14:57:15;-15.57;77.57
72355;SHT30;60314;55.040;73.076;2022-12-29T14:59:44;-15.59;77.70
72355;SHT30;60314;55.040;73.076;2022-12-29T15:02:16;-15.61;78.26
72355;SHT30;60314;55.040;73.076;2022-12-29T15:04:43;-15.63;78.00
72355;SHT30;60314;55.040;73.076;2022-12-29T15:07:10;-15.64;78.23
72355;SHT30;60314;55.040;73.076;2022-12-29T15:09:41;-15.68;78.26
72355;SHT30;60314;55.040;73.076;2022-12-29T15:12:17;-15.74;78.10
72355;SHT30;60314;55.040;73.076;2022-12-29T15:14:55;-15.70;77.63
72355;SHT30;60314;55.040;73.076;2022-12-29T15:17:23;-15.68;78.03
72355;SHT30;60314;55.040;73.076;2022-12-29T15:20:03;-15.67;78.69
72355;SHT30;60314;55.040;73.076;2022-12-29T15:22:47;-15.67;78.79
72355;SHT30;60314;55.040;73.076;2022-12-29T15:25:15;-15.68;79.21
72355;SHT30;60314;55.040;73.076;2022-12-29T15:27:47;-15.66;79.30
72355;SHT30;60314;55.040;73.076;2022-12-29T15:30:23;-15.68;79.52
72355;SHT30;60314;55.040;73.076;2022-12-29T15:32:50;-15.68;79.49
72355;SHT30;60314;55.040;73.076;2022-12-29T15:35:32;-15.71;79.53
72355;SHT30;60314;55.040;73.076;2022-12-29T15:38:00;-15.71;79.22
72355;SHT30;60314;55.040;73.076;2022-12-29T15:40:38;-15.74;79.20
72355;SHT30;60314;55.040;73.076;2022-12-29T15:46:10;-15.78;78.72
72355;SHT30;60314;55.040;73.076;2022-12-29T15:48:37;-15.80;78.76
72355;SHT30;60314;55.040;73.076;2022-12-29T15:51:09;-15.84;78.23
72355;SHT30;60314;55.040;73.076;2022-12-29T15:53:37;-15.88;78.15
72355;SHT30;60314;55.040;73.076;2022-12-29T15:56:09;-15.87;78.09
72355;SHT30;60314;55.040;73.076;2022-12-29T15:58:40;-15.78;78.17
72355;SHT30;60314;55.040;73.076;2022-12-29T16:01:33;-15.82;77.22
72355;SHT30;60314;55.040;73.076;2022-12-29T16:04:08;-15.88;77.19
72355;SHT30;60314;55.040;73.076;2022-12-29T16:06:38;-15.97;77.23
72355;SHT30;60314;55.040;73.076;2022-12-29T16:09:16;-16.05;77.71
72355;SHT30;60314;55.040;73.076;2022-12-29T16:11:55;-16.09;78.02
72355;SHT30;60314;55.040;73.076;2022-12-29T16:14:33;-15.99;78.27
72355;SHT30;60314;55.040;73.076;2022-12-29T16:17:00;-15.95;77.60
72355;SHT30;60314;55.040;73.076;2022-12-29T16:19:32;-15.94;78.09
72355;SHT30;60314;55.040;73.076;2022-12-29T16:22:00;-15.95;77.87
72355;SHT30;60314;55.040;73.076;2022-12-29T16:24:29;-15.94;77.87
72355;SHT30;60314;55.040;73.076;2022-12-29T16:27:06;-16.02;77.22
72355;SHT30;60314;55.040;73.076;2022-12-29T16:29:33;-16.05;77.59
72355;SHT30;60314;55.040;73.076;2022-12-29T16:32:00;-16.15;77.28
72355;SHT30;60314;55.040;73.076;2022-12-29T16:34:30;-16.22;77.48
72355;SHT30;60314;55.040;73.076;2022-12-29T16:37:25;-16.16;77.68
72355;SHT30;60314;55.040;73.076;2022-12-29T16:39:51;-16.26;77.31
72355;SHT30;60314;55.040;73.076;2022-12-29T16:45:07;-16.25;76.73
72355;SHT30;60314;55.040;73.076;2022-12-29T16:47:48;-16.26;76.62
72355;SHT30;60314;55.040;73.076;2022-12-29T16:50:34;-16.23;76.89
72355;SHT30;60314;55.040;73.076;2022-12-29T16:53:02;-16.21;77.22
72355;SHT30;60314;55.040;73.076;2022-12-29T16:55:39;-16.16;77.05
72355;SHT30;60314;55.040;73.076;2022-12-29T16:58:12;-16.08;77.25
72355;SHT30;60314;55.040;73.076;2022-12-29T17:00:53;-16.12;76.25
72355;SHT30;60314;55.040;73.076;2022-12-29T17:03:33;-16.05;76.38
72355;SHT30;60314;55.040;73.076;2022-12-29T17:06:05;-16.08;75.68
72355;SHT30;60314;55.040;73.076;2022-12-29T17:08:42;-16.06;75.63
72355;SHT30;60314;55.040;73.076;2022-12-29T17:14:04;-16.05;75.19
72355;SHT30;60314;55.040;73.076;2022-12-29T17:16:32;-16.09;74.33
72355;SHT30;60314;55.040;73.076;2022-12-29T17:18:58;-16.21;73.58
72355;SHT30;60314;55.040;73.076;2022-12-29T17:21:46;-16.26;73.87
72355;SHT30;60314;55.040;73.076;2022-12-29T17:24:16;-16.23;73.75
72355;SHT30;60314;55.040;73.076;2022-12-29T17:26:44;-16.26;73.52
72355;SHT30;60314;55.040;73.076;2022-12-29T17:29:27;-16.32;73.29
72355;SHT30;60314;55.040;73.076;2022-12-29T17:31:54;-16.40;73.54
72355;SHT30;60314;55.040;73.076;2022-12-29T17:34:21;-16.43;73.97
72355;SHT30;60314;55.040;73.076;2022-12-29T17:36:54;-16.40;73.62
72355;SHT30;60314;55.040;73.076;2022-12-29T17:39:20;-16.44;73.48
72355;SHT30;60314;55.040;73.076;2022-12-29T17:41:56;-16.46;73.09
72355;SHT30;60314;55.040;73.076;2022-12-29T17:44:27;-16.47;72.51
72355;SHT30;60314;55.040;73.076;2022-12-29T17:46:53;-16.50;72.29
72355;SHT30;60314;55.040;73.076;2022-12-29T17:49:31;-16.50;72.44
72355;SHT30;60314;55.040;73.076;2022-12-29T17:51:57;-16.56;72.22
72355;SHT30;60314;55.040;73.076;2022-12-29T17:54:24;-16.56;71.87
72355;SHT30;60314;55.040;73.076;2022-12-29T17:56:51;-16.60;71.59
72355;SHT30;60314;55.040;73.076;2022-12-29T17:59:17;-16.68;71.46
72355;SHT30;60314;55.040;73.076;2022-12-29T18:01:48;-16.67;71.70
72355;SHT30;60314;55.040;73.076;2022-12-29T18:04:25;-16.80;71.51
72355;SHT30;60314;55.040;73.076;2022-12-29T18:06:51;-16.83;71.65
72355;SHT30;60314;55.040;73.076;2022-12-29T18:09:17;-16.84;71.44
72355;SHT30;60314;55.040;73.076;2022-12-29T18:11:44;-16.91;71.06
72355;SHT30;60314;55.040;73.076;2022-12-29T18:14:11;-16.98;71.06
72355;SHT30;60314;55.040;73.076;2022-12-29T18:16:38;-17.01;71.22
72355;SHT30;60314;55.040;73.076;2022-12-29T18:19:04;-16.97;71.41
72355;SHT30;60314;55.040;73.076;2022-12-29T18:21:31;-17.01;70.92
72355;SHT30;60314;55.040;73.076;2022-12-29T18:23:57;-17.05;71.33
72355;SHT30;60314;55.040;73.076;2022-12-29T18:26:24;-17.14;71.36